KA8OAD-1 Weather Reports


Display with metric or nautical units.
time (UTC)temp
F
wind
direction
speed
MPH
gust
MPH
rain 1hr
in
rain 24hr
in
rain mn
in
humidity
%
barometer
mb
20220818080504 59 0 0.0 0.0 0.00 0.04 0.00 79 1015.4
20220818075504 59 0 0.0 0.0 0.00 0.04 0.00 79 1015.5
20220818075005 59 0 0.0 0.0 0.00 0.04 0.00 79 1015.6
20220818074004 60 0 0.0 0.0 0.00 0.04 0.00 79 1015.7
20220818073503 60 0 0.0 0.0 0.00 0.04 0.00 79 1015.7
20220818072004 60 0 0.0 0.0 0.00 0.04 0.00 78 1015.6
20220818070504 60 0 0.0 0.0 0.00 0.04 0.00 79 1015.4
20220818070005 60 0 0.0 0.0 0.00 0.04 0.00 79 1015.3
20220818064005 61 0 0.0 0.0 0.00 0.04 0.00 78 1015.4
20220818063004 61 0 0.0 0.0 0.00 0.04 0.00 78 1015.4
20220818061505 61 0 0.0 0.0 0.00 0.04 0.00 78 1015.2
20220818061004 61 0 0.0 0.0 0.00 0.04 0.00 78 1015.2
20220818054504 62 0 0.0 0.0 0.00 0.04 0.00 77 1015.4
20220818053504 62 0 0.0 0.0 0.00 0.04 0.00 77 1015.4
20220818052004 62 0 0.0 0.0 0.00 0.04 0.00 77 1015.5
20220818051503 62 0 0.0 0.0 0.00 0.04 0.00 77 1015.4
20220818050004 63 0 0.0 0.0 0.00 0.04 0.00 77 1015.5
20220818045503 63 0 0.0 0.0 0.00 0.04 0.00 77 1015.5
20220818045005 63 0 0.0 0.0 0.00 0.04 0.00 76 1015.5
20220818044504 63 0 0.0 0.0 0.00 0.04 0.00 76 1015.5
20220818041503 64 0 0.0 0.0 0.00 0.04 0.00 75 1015.5
20220818040503 64 0 0.0 0.0 0.00 0.04 0.00 75 1015.6
20220818040006 64 0 0.0 0.0 0.00 0.04 0.00 75 1015.5
20220818035503 64 0 0.0 0.0 0.00 0.04 0.04 74 1015.5
20220818034504 64 0 0.0 0.0 0.00 0.04 0.04 74 1015.5
20220818032503 65 0 0.0 0.0 0.00 0.04 0.04 73 1015.5
20220818032004 65 0 0.0 0.0 0.00 0.04 0.04 73 1015.5
20220818031504 65 0 0.0 0.0 0.00 0.04 0.04 73 1015.6
20220818031004 66 0 0.0 0.0 0.00 0.04 0.04 73 1015.6
20220818030504 66 0 0.0 0.0 0.00 0.04 0.04 72 1015.6
20220818025504 66 0 0.0 0.0 0.00 0.04 0.04 71 1015.8
20220818025004 66 0 0.0 0.0 0.00 0.04 0.04 71 1015.8
20220818024004 66 0 0.0 0.0 0.00 0.04 0.04 71 1015.9
20220818023504 66 0 0.0 0.0 0.00 0.04 0.04 71 1015.8
20220818023004 67 0 0.0 0.0 0.00 0.04 0.04 71 1015.8
20220818022505 67 0 0.0 0.0 0.00 0.04 0.04 71 1015.8
20220818022004 67 0 0.0 0.0 0.00 0.04 0.04 70 1015.9
20220818021005 67 0 0.0 0.0 0.00 0.04 0.04 70 1016.0
20220818020503 67 0 0.0 0.0 0.00 0.04 0.04 69 1016.1
20220818020004 67 0 0.0 0.0 0.00 0.04 0.04 68 1016.1
20220818013503 68 0 0.0 0.0 0.00 0.05 0.04 66 1016.1
20220818013004 68 0 0.0 0.0 0.00 0.05 0.04 66 1016.2
20220818012004 69 0 0.0 0.0 0.00 0.06 0.04 65 1016.2
20220818011004 69 0 0.0 0.0 0.00 0.06 0.04 64 1016.1
20220818005503 70 0 0.0 0.0 0.00 0.06 0.04 63 1015.8
20220818005005 70 0 0.0 0.0 0.00 0.07 0.04 62 1015.9
20220818004503 71 0 0.0 0.0 0.00 0.07 0.04 62 1015.9
20220818004004 71 0 0.0 0.0 0.00 0.07 0.04 62 1015.8
20220818003504 71 0 0.0 0.0 0.00 0.07 0.04 62 1015.8
20220818003004 71 0 0.0 0.0 0.00 0.08 0.04 62 1015.9
20220818002504 71 0 0.0 0.0 0.00 0.08 0.04 62 1015.9
20220818002004 72 0 0.0 0.0 0.00 0.08 0.04 61 1016.0
20220818001505 72 71 0.0 1.0 0.00 0.09 0.04 62 1016.0
20220818001005 72 71 0.0 1.0 0.00 0.09 0.04 62 1016.1
20220818000004 72 71 0.0 1.0 0.00 0.10 0.04 62 1016.0
20220817235503 72 71 0.0 2.0 0.00 0.10 0.04 62 1016.0
20220817235004 72 71 0.0 2.0 0.00 0.10 0.04 62 1016.0
20220817233504 73 30 0.0 2.0 0.00 0.12 0.04 63 1015.9
20220817232504 73 87 0.0 3.0 0.00 0.13 0.04 62 1015.9
20220817232004 73 0 0.0 0.0 0.00 0.13 0.04 62 1015.8
20220817230504 73 0 0.0 0.0 0.00 0.15 0.04 62 1015.7
20220817230004 73 0 0.0 0.0 0.00 0.15 0.04 62 1015.7
20220817224004 74 0 0.0 0.0 0.00 0.16 0.04 62 1015.7
20220817221504 74 1 0.0 1.0 0.00 0.16 0.04 63 1015.8
20220817221004 74 1 0.0 1.0 0.00 0.16 0.04 61 1015.7
20220817220503 74 358 0.0 1.0 0.00 0.16 0.04 60 1015.7
20220817220005 74 358 0.0 1.0 0.00 0.16 0.04 60 1015.7
20220817215005 74 355 0.0 1.0 0.00 0.16 0.04 60 1015.7
20220817214503 74 355 0.0 1.0 0.00 0.16 0.04 60 1015.6
20220817213503 73 36 0.0 2.0 0.01 0.16 0.04 59 1015.6
20220817212504 73 0 0.0 0.0 0.01 0.16 0.04 62 1015.6
20220817211505 73 0 0.0 0.0 0.02 0.17 0.04 64 1015.6
20220817211004 73 0 0.0 0.0 0.02 0.18 0.04 65 1015.6
20220817210005 74 0 0.0 0.0 0.02 0.18 0.04 65 1015.7
20220817205503 74 0 0.0 0.0 0.02 0.19 0.04 64 1015.6
20220817205004 74 0 0.0 0.0 0.02 0.19 0.04 63 1015.7
20220817203005 74 313 0.0 4.0 0.01 0.21 0.03 61 1016.0
20220817202504 74 303 0.0 3.0 0.01 0.21 0.03 62 1016.1
20220817200504 74 0 0.0 0.0 0.02 0.21 0.02 63 1016.2
20220817200005 74 0 0.0 0.0 0.02 0.22 0.02 62 1016.2
20220817194503 75 0 0.0 0.0 0.02 0.22 0.02 57 1016.4
20220817192505 79 323 0.0 1.0 0.02 0.22 0.02 54 1016.7
20220817192004 79 324 0.0 1.0 0.01 0.21 0.01 53 1016.8
20220817191504 80 325 0.0 1.0 0.01 0.21 0.01 52 1016.8
20220817185503 81 70 1.0 5.0 0.00 0.20 0.00 41 1016.6
20220817184004 82 49 0.0 3.0 0.00 0.20 0.00 41 1016.6
20220817183004 83 77 1.0 4.0 0.00 0.20 0.00 39 1016.7
20220817182504 84 72 0.0 3.0 0.00 0.20 0.00 40 1016.8
20220817182004 84 87 1.0 6.0 0.00 0.20 0.00 41 1016.8
20220817181504 84 72 2.0 6.0 0.00 0.20 0.00 35 1016.8
20220817181005 84 72 1.0 6.0 0.00 0.20 0.00 39 1016.8
20220817180503 84 104 1.0 6.0 0.00 0.20 0.00 39 1016.7
20220817173004 83 51 1.0 3.0 0.00 0.20 0.00 38 1017.1
20220817172504 83 356 0.0 3.0 0.00 0.20 0.00 41 1017.1
20220817172004 83 43 0.0 1.0 0.00 0.20 0.00 40 1017.1
20220817171504 83 60 0.0 3.0 0.00 0.20 0.00 39 1017.2
20220817165503 83 174 1.0 4.0 0.00 0.20 0.00 41 1017.3
20220817164504 82 80 1.0 3.0 0.00 0.20 0.00 45 1017.4
20220817163004 80 150 1.0 3.0 0.00 0.20 0.00 49 1017.6
20220817162503 80 133 1.0 3.0 0.00 0.20 0.00 48 1017.6
20220817162005 79 101 1.0 3.0 0.00 0.20 0.00 47 1017.6
20220817161504 79 83 1.0 3.0 0.00 0.20 0.00 49 1017.6
20220817161004 78 119 1.0 4.0 0.00 0.20 0.00 51 1017.7
20220817160504 78 156 1.0 4.0 0.00 0.20 0.00 50 1017.8
20220817155004 76 33 1.0 3.0 0.00 0.20 0.00 54 1017.7
20220817153505 74 73 0.0 3.0 0.00 0.20 0.00 61 1017.8
20220817153005 74 0 0.0 0.0 0.00 0.20 0.00 60 1017.8
20220817152005 73 70 0.0 1.0 0.00 0.20 0.00 60 1017.9
20220817151504 72 95 0.0 1.0 0.00 0.20 0.00 64 1017.9
20220817150504 72 120 0.0 3.0 0.00 0.20 0.00 62 1018.0
20220817150004 71 115 0.0 2.0 0.00 0.20 0.00 67 1018.0
20220817144504 69 164 0.0 3.0 0.00 0.20 0.00 69 1017.9
20220817144005 69 141 0.0 3.0 0.00 0.20 0.00 70 1017.9
20220817143004 68 140 0.0 3.0 0.00 0.20 0.00 73 1017.9
20220817142005 68 134 1.0 3.0 0.00 0.20 0.00 73 1018.0
20220817141004 67 146 0.0 2.0 0.00 0.20 0.00 76 1018.1
20220817140503 67 128 1.0 6.0 0.00 0.20 0.00 78 1018.1
20220817140004 66 123 2.0 6.0 0.00 0.20 0.00 79 1018.2
20220817134504 65 134 0.0 3.0 0.00 0.20 0.00 82 1018.3
20220817133004 65 133 2.0 4.0 0.00 0.20 0.00 83 1018.4
20220817132503 64 122 2.0 4.0 0.00 0.20 0.00 83 1018.4
20220817132004 64 84 1.0 4.0 0.00 0.20 0.00 84 1018.4
20220817131504 64 74 1.0 3.0 0.00 0.20 0.00 84 1018.3
20220817131004 64 97 1.0 2.0 0.00 0.20 0.00 84 1018.3
20220817124004 62 52 0.0 2.0 0.00 0.20 0.00 84 1018.1
20220817123504 62 52 0.0 1.0 0.00 0.20 0.00 84 1018.1
20220817121004 60 0 0.0 0.0 0.00 0.20 0.00 83 1018.3
20220817120503 60 0 0.0 0.0 0.00 0.20 0.00 83 1018.2
20220817115504 60 0 0.0 0.0 0.00 0.20 0.00 83 1018.0
20220817113005 60 0 0.0 0.0 0.00 0.20 0.00 83 1017.9
20220817112005 60 0 0.0 0.0 0.00 0.20 0.00 83 1017.9
20220817111503 60 0 0.0 0.0 0.00 0.20 0.00 83 1017.8
20220817111005 60 0 0.0 0.0 0.00 0.20 0.00 83 1017.8
20220817110504 60 0 0.0 0.0 0.00 0.20 0.00 83 1017.8
20220817104504 60 0 0.0 0.0 0.00 0.20 0.00 83 1017.4
20220817102503 60 0 0.0 0.0 0.00 0.20 0.00 82 1017.3
20220817100504 60 0 0.0 0.0 0.00 0.20 0.00 83 1017.1
20220817094504 61 0 0.0 0.0 0.00 0.20 0.00 82 1017.0
20220817094004 61 0 0.0 0.0 0.00 0.20 0.00 82 1017.0
20220817092504 61 0 0.0 0.0 0.00 0.20 0.00 83 1016.9
20220817092005 61 0 0.0 0.0 0.00 0.20 0.00 83 1016.9
20220817091005 61 0 0.0 0.0 0.00 0.20 0.00 83 1017.0
20220817090504 61 0 0.0 0.0 0.00 0.20 0.00 83 1017.1
20220817085503 61 0 0.0 0.0 0.00 0.20 0.00 83 1017.1